createdAt,value
2023-01-28T00:01:43.431Z,96585.28
2023-01-28T00:04:12.618Z,96588.84
2023-01-28T00:06:40.488Z,96584.81
2023-01-28T00:09:08.443Z,96592.53
2023-01-28T00:11:47.250Z,96590.81
2023-01-28T00:14:15.077Z,96583.91
2023-01-28T00:16:42.848Z,96586.66
2023-01-28T00:19:12.382Z,96581.25
2023-01-28T00:21:40.620Z,96582.84
2023-01-28T00:24:09.619Z,96577.06
2023-01-28T00:26:38.091Z,96581.91
2023-01-28T00:29:06.581Z,96588.38
2023-01-28T00:31:35.426Z,96583.97
2023-01-28T00:34:03.317Z,96590.31
2023-01-28T00:36:32.471Z,96582.91
2023-01-28T00:39:02.389Z,96587.91
2023-01-28T00:41:31.124Z,96585.72
2023-01-28T00:44:00.171Z,96585.97
2023-01-28T00:46:28.049Z,96581.56
2023-01-28T00:48:56.039Z,96579.44
2023-01-28T00:51:24.097Z,96588.56
2023-01-28T00:53:53.990Z,96587.91
2023-01-28T00:56:21.792Z,96580.16
2023-01-28T00:58:50.259Z,96584.22
2023-01-28T01:01:21.156Z,96582.97
2023-01-28T01:03:54.395Z,96580.66
2023-01-28T01:06:23.263Z,96591.28
2023-01-28T01:08:51.169Z,96595.09
2023-01-28T01:11:20.432Z,96594.38
2023-01-28T01:13:52.148Z,96597.94
2023-01-28T01:16:21.006Z,96595.66
2023-01-28T01:18:52.177Z,96596.69
2023-01-28T01:21:21.729Z,96596.00
2023-01-28T01:23:49.510Z,96594.94
2023-01-28T01:26:17.596Z,96600.38
2023-01-28T01:28:46.916Z,96608.34
2023-01-28T01:31:17.592Z,96595.28
2023-01-28T01:33:46.727Z,96597.94
2023-01-28T01:36:16.709Z,96599.69
2023-01-28T01:38:45.491Z,96600.00
2023-01-28T01:41:23.808Z,96606.59
2023-01-28T01:43:55.447Z,96599.13
2023-01-28T01:46:28.654Z,96598.91
2023-01-28T01:48:59.067Z,96606.06
2023-01-28T01:51:33.831Z,96617.69
2023-01-28T01:54:02.158Z,96618.28
2023-01-28T01:56:35.646Z,96627.16
2023-01-28T01:59:05.754Z,96614.13
2023-01-28T02:01:33.805Z,96625.56
2023-01-28T02:04:08.326Z,96617.03
2023-01-28T02:06:37.767Z,96613.53
2023-01-28T02:09:08.569Z,96612.84
2023-01-28T02:11:37.422Z,96608.56
2023-01-28T02:14:07.778Z,96609.00
2023-01-28T02:16:35.826Z,96608.22
2023-01-28T02:19:03.617Z,96609.97
2023-01-28T02:22:06.867Z,96609.47
2023-01-28T02:25:06.243Z,96610.06
2023-01-28T02:27:40.969Z,96613.19
2023-01-28T02:30:17.370Z,96622.34
2023-01-28T02:32:52.695Z,96619.78
2023-01-28T02:35:34.179Z,96621.75
2023-01-28T02:38:06.643Z,96626.69
2023-01-28T02:40:57.475Z,96623.44
2023-01-28T02:43:32.115Z,96628.19
2023-01-28T02:46:21.476Z,96629.81
2023-01-28T02:48:49.710Z,96628.09
2023-01-28T02:51:28.807Z,96623.59
2023-01-28T02:54:02.711Z,96627.97
2023-01-28T02:56:36.637Z,96628.31
2023-01-28T02:59:26.573Z,96623.59
2023-01-28T03:02:04.989Z,96626.00
2023-01-28T03:04:38.663Z,96627.84
2023-01-28T03:07:09.424Z,96620.09
2023-01-28T03:09:39.274Z,96628.19
2023-01-28T03:12:27.538Z,96632.69
2023-01-28T03:15:15.869Z,96637.88
2023-01-28T03:18:05.768Z,96628.41
2023-01-28T03:20:58.533Z,96621.84
2023-01-28T03:23:50.715Z,96625.00
2023-01-28T03:26:41.154Z,96631.31
2023-01-28T03:29:31.789Z,96630.31
2023-01-28T03:32:20.065Z,96634.91
2023-01-28T03:35:06.963Z,96635.38
2023-01-28T03:37:35.880Z,96640.44
2023-01-28T03:40:19.389Z,96647.50
2023-01-28T03:42:47.839Z,96645.53
2023-01-28T03:45:34.856Z,96648.66
2023-01-28T03:48:05.460Z,96654.78
2023-01-28T03:50:35.375Z,96658.56
2023-01-28T03:53:16.389Z,96647.03
2023-01-28T03:55:50.844Z,96650.50
2023-01-28T03:58:19.619Z,96647.84
2023-01-28T04:00:47.833Z,96648.75
2023-01-28T04:03:18.153Z,96654.88
2023-01-28T04:06:02.027Z,96650.16
2023-01-28T04:08:53.072Z,96660.19
2023-01-28T04:11:39.664Z,96662.28
2023-01-28T04:14:09.038Z,96666.78
2023-01-28T04:16:58.981Z,96656.97
2023-01-28T04:19:27.512Z,96662.84
2023-01-28T04:21:58.055Z,96659.63
2023-01-28T04:24:26.683Z,96659.03
2023-01-28T04:26:56.478Z,96661.47
2023-01-28T04:29:25.609Z,96665.50
2023-01-28T04:31:56.333Z,96667.91
2023-01-28T04:34:36.093Z,96669.56
2023-01-28T04:37:15.371Z,96675.88
2023-01-28T04:40:01.490Z,96677.72
2023-01-28T04:42:43.569Z,96675.88
2023-01-28T04:45:22.690Z,96682.25
2023-01-28T04:48:08.445Z,96679.03
2023-01-28T04:50:59.634Z,96675.88
2023-01-28T04:53:48.161Z,96680.63
2023-01-28T04:56:31.256Z,96683.28
2023-01-28T04:58:59.036Z,96688.59
2023-01-28T05:01:27.182Z,96693.34
2023-01-28T05:03:54.918Z,96687.00
2023-01-28T05:06:26.385Z,96688.72
2023-01-28T05:09:07.553Z,96689.16
2023-01-28T05:11:37.850Z,96692.88
2023-01-28T05:14:06.882Z,96696.31
2023-01-28T05:16:41.371Z,96708.69
2023-01-28T05:19:09.437Z,96704.88
2023-01-28T05:21:41.084Z,96710.41
2023-01-28T05:24:18.016Z,96709.38
2023-01-28T05:26:46.298Z,96710.75
2023-01-28T05:29:14.176Z,96700.94
2023-01-28T05:31:42.071Z,96705.69
2023-01-28T05:34:10.554Z,96713.06
2023-01-28T05:36:38.467Z,96711.47
2023-01-28T05:39:19.453Z,96712.25
2023-01-28T05:41:47.204Z,96714.47
2023-01-28T05:44:15.109Z,96715.63
2023-01-28T05:46:59.876Z,96712.63
2023-01-28T05:49:47.993Z,96720.94
2023-01-28T05:52:33.828Z,96718.94
2023-01-28T05:55:03.971Z,96727.06
2023-01-28T05:57:32.194Z,96715.28
2023-01-28T06:00:00.129Z,96711.34
2023-01-28T06:02:28.134Z,96711.81
2023-01-28T06:04:58.517Z,96721.88
2023-01-28T06:07:26.350Z,96717.13
2023-01-28T06:09:54.119Z,96721.63
2023-01-28T06:12:24.301Z,96722.28
2023-01-28T06:15:14.315Z,96723.69
2023-01-28T06:18:03.374Z,96728.66
2023-01-28T06:20:34.845Z,96737.91
2023-01-28T06:23:04.975Z,96732.00
2023-01-28T06:25:33.106Z,96737.22
2023-01-28T06:28:10.826Z,96747.16
2023-01-28T06:30:38.681Z,96742.06
2023-01-28T06:33:06.524Z,96743.44
2023-01-28T06:35:34.370Z,96741.03
2023-01-28T06:38:04.514Z,96745.66
2023-01-28T06:40:32.440Z,96754.88
2023-01-28T06:43:00.224Z,96752.34
2023-01-28T06:45:29.459Z,96758.69
2023-01-28T06:47:57.294Z,96768.28
2023-01-28T06:50:25.448Z,96769.41
2023-01-28T06:52:54.366Z,96767.38
2023-01-28T06:55:22.206Z,96774.53
2023-01-28T06:57:50.007Z,96778.78
2023-01-28T07:00:19.131Z,96782.00
2023-01-28T07:02:48.341Z,96774.97
2023-01-28T07:05:16.306Z,96783.75
2023-01-28T07:07:44.749Z,96788.25
2023-01-28T07:10:12.906Z,96784.69
2023-01-28T07:12:41.155Z,96791.63
2023-01-28T07:15:10.900Z,96794.28
2023-01-28T07:17:40.606Z,96801.44
2023-01-28T07:20:13.216Z,96799.34
2023-01-28T07:22:42.811Z,96801.19
2023-01-28T07:25:14.261Z,96796.94
2023-01-28T07:27:47.967Z,96803.84
2023-01-28T07:30:16.896Z,96801.19
2023-01-28T07:32:45.618Z,96799.13
2023-01-28T07:35:15.965Z,96801.31
2023-01-28T07:37:43.758Z,96812.53
2023-01-28T07:40:13.075Z,96807.66
2023-01-28T07:42:41.024Z,96811.81
2023-01-28T07:45:11.705Z,96817.72
2023-01-28T07:47:39.531Z,96822.00
2023-01-28T07:50:09.473Z,96816.22
2023-01-28T07:52:44.363Z,96820.50
2023-01-28T07:55:15.512Z,96830.31
2023-01-28T07:57:53.738Z,96818.28
2023-01-28T08:00:22.844Z,96829.03
2023-01-28T08:02:51.496Z,96827.19
2023-01-28T08:05:21.283Z,96824.53
2023-01-28T08:07:50.630Z,96831.47
2023-01-28T08:10:19.327Z,96837.59
2023-01-28T08:12:54.435Z,96833.53
2023-01-28T08:15:22.733Z,96842.31
2023-01-28T08:17:50.611Z,96843.38
2023-01-28T08:20:18.831Z,96844.88
2023-01-28T08:22:46.622Z,96844.16
2023-01-28T08:25:16.106Z,96841.28
2023-01-28T08:27:43.930Z,96851.00
2023-01-28T08:30:13.225Z,96856.69
2023-01-28T08:32:41.341Z,96847.66
2023-01-28T08:35:09.763Z,96858.66
2023-01-28T08:37:37.534Z,96849.50
2023-01-28T08:40:06.357Z,96857.47
2023-01-28T08:42:35.426Z,96849.38
2023-01-28T08:45:03.832Z,96859.78
2023-01-28T08:47:31.660Z,96856.78
2023-01-28T08:49:59.565Z,96860.00
2023-01-28T08:52:27.465Z,96862.66
2023-01-28T08:54:55.217Z,96864.41
2023-01-28T08:57:22.985Z,96865.69
2023-01-28T08:59:54.278Z,96859.91
2023-01-28T09:02:31.166Z,96859.06
2023-01-28T09:04:59.897Z,96863.69
2023-01-28T09:07:27.776Z,96865.66
2023-01-28T09:09:55.751Z,96867.19
2023-01-28T09:12:23.649Z,96863.38
2023-01-28T09:14:52.121Z,96868.13
2023-01-28T09:17:21.459Z,96871.09
2023-01-28T09:19:50.257Z,96871.56
2023-01-28T09:22:30.357Z,96877.81
2023-01-28T09:25:00.284Z,96874.81
2023-01-28T09:27:28.136Z,96869.16
2023-01-28T09:29:56.989Z,96874.31
2023-01-28T09:32:26.261Z,96879.53
2023-01-28T09:34:54.091Z,96878.25
2023-01-28T09:37:21.877Z,96873.53
2023-01-28T09:39:49.629Z,96882.88
2023-01-28T09:42:32.797Z,96889.38
2023-01-28T09:45:07.807Z,96886.81
2023-01-28T09:47:42.289Z,96885.31
2023-01-28T09:50:16.719Z,96896.06
2023-01-28T09:52:49.770Z,96891.78
2023-01-28T09:55:34.606Z,96890.75
2023-01-28T09:58:02.841Z,96886.09
2023-01-28T10:00:40.405Z,96881.56
2023-01-28T10:03:25.167Z,96883.22
2023-01-28T10:06:03.843Z,96883.31
2023-01-28T10:08:45.146Z,96883.28
2023-01-28T10:11:24.262Z,96882.00
2023-01-28T10:14:01.438Z,96879.09
2023-01-28T10:16:37.480Z,96880.88
2023-01-28T10:19:12.175Z,96881.09
2023-01-28T10:21:44.798Z,96879.72
2023-01-28T10:24:19.686Z,96876.19
2023-01-28T10:26:47.591Z,96877.84
2023-01-28T10:29:18.820Z,96875.38
2023-01-28T10:31:53.757Z,96877.03
2023-01-28T10:34:24.061Z,96887.88
2023-01-28T10:36:53.281Z,96876.41
2023-01-28T10:39:24.698Z,96879.28
2023-01-28T10:41:58.183Z,96882.28
2023-01-28T10:44:33.855Z,96874.38
2023-01-28T10:47:05.929Z,96881.56
2023-01-28T10:49:42.995Z,96879.09
2023-01-28T10:52:14.726Z,96881.69
2023-01-28T10:54:42.641Z,96881.69
2023-01-28T10:57:14.124Z,96878.47
2023-01-28T11:00:07.592Z,96879.53
2023-01-28T11:02:37.309Z,96879.09
2023-01-28T11:05:17.596Z,96883.47
2023-01-28T11:07:46.097Z,96880.31
2023-01-28T11:10:36.881Z,96891.19
2023-01-28T11:13:06.672Z,96886.84
2023-01-28T11:15:34.580Z,96888.31
2023-01-28T11:18:06.222Z,96879.63
2023-01-28T11:20:39.812Z,96878.47
2023-01-28T11:23:07.897Z,96878.13
2023-01-28T11:25:38.437Z,96875.63
2023-01-28T11:28:16.729Z,96874.41
2023-01-28T11:30:44.562Z,96872.97
2023-01-28T11:33:18.246Z,96873.81
2023-01-28T11:35:56.542Z,96871.16
2023-01-28T11:38:26.275Z,96872.56
2023-01-28T11:40:55.521Z,96875.84
2023-01-28T11:43:25.082Z,96880.72
2023-01-28T11:46:05.312Z,96870.44
2023-01-28T11:48:44.179Z,96871.16
2023-01-28T11:51:23.701Z,96878.34
2023-01-28T11:54:05.108Z,96872.34
2023-01-28T11:56:55.088Z,96869.38
2023-01-28T11:59:32.800Z,96874.78
2023-01-28T12:02:16.335Z,96869.78
2023-01-28T12:05:05.061Z,96870.59
2023-01-28T12:07:46.508Z,96873.81
2023-01-28T12:10:20.800Z,96874.72
2023-01-28T12:13:10.798Z,96878.03
2023-01-28T12:16:01.383Z,96878.03
2023-01-28T12:18:42.849Z,96878.25
2023-01-28T12:21:18.324Z,96876.44
2023-01-28T12:24:02.938Z,96875.31
2023-01-28T12:26:41.928Z,96883.28
2023-01-28T12:29:24.097Z,96872.78
2023-01-28T12:32:17.399Z,96869.88
2023-01-28T12:35:12.106Z,96872.16
2023-01-28T12:37:52.978Z,96878.84
2023-01-28T12:40:39.250Z,96884.09
2023-01-28T12:43:41.308Z,96870.44
2023-01-28T12:46:17.729Z,96877.22
2023-01-28T12:48:50.879Z,96869.06
2023-01-28T12:51:24.983Z,96864.81
2023-01-28T12:53:58.594Z,96869.22
2023-01-28T12:56:36.493Z,96869.97
2023-01-28T12:59:11.366Z,96863.66
2023-01-28T13:01:52.702Z,96859.38
2023-01-28T13:04:32.542Z,96865.03
2023-01-28T13:07:28.700Z,96864.78
2023-01-28T13:10:04.575Z,96866.81
2023-01-28T13:12:34.875Z,96865.19
2023-01-28T13:15:13.130Z,96876.75
2023-01-28T13:17:42.023Z,96875.78
2023-01-28T13:20:16.488Z,96879.16
2023-01-28T13:22:46.258Z,96869.66
2023-01-28T13:25:21.303Z,96875.06
2023-01-28T13:28:02.693Z,96874.00
2023-01-28T13:30:34.348Z,96879.16
2023-01-28T13:33:05.801Z,96883.16
2023-01-28T13:35:43.858Z,96878.53
2023-01-28T13:38:20.624Z,96884.91
2023-01-28T13:40:56.883Z,96886.19
2023-01-28T13:44:20.452Z,96891.28
2023-01-28T13:46:49.661Z,96888.72
2023-01-28T13:49:22.495Z,96898.72
2023-01-28T13:52:00.634Z,96897.44
2023-01-28T13:54:32.020Z,96892.34
2023-01-28T13:57:21.764Z,96897.44
2023-01-28T13:59:58.134Z,96898.09
2023-01-28T14:03:07.262Z,96890.47
2023-01-28T14:05:59.389Z,96905.19
2023-01-28T14:08:46.183Z,96908.34
2023-01-28T14:11:32.054Z,96911.81
2023-01-28T14:14:25.307Z,96909.66
2023-01-28T14:16:57.870Z,96919.66
2023-01-28T14:23:54.708Z,96908.50
2023-01-28T14:26:33.127Z,96910.66
2023-01-28T14:29:17.322Z,96919.47
2023-01-28T14:31:45.408Z,96920.69
2023-01-28T14:34:21.306Z,96924.59
2023-01-28T14:36:50.550Z,96922.75
2023-01-28T14:39:23.890Z,96923.66
2023-01-28T14:42:00.639Z,96928.88
2023-01-28T14:44:33.025Z,96922.16
2023-01-28T14:47:33.569Z,96931.47
2023-01-28T14:50:19.043Z,96930.06
2023-01-28T14:53:01.580Z,96930.16
2023-01-28T14:55:38.261Z,96942.13
2023-01-28T14:58:11.032Z,96938.56
2023-01-28T15:00:39.640Z,96932.88
2023-01-28T15:03:24.894Z,96940.16
2023-01-28T15:06:03.849Z,96941.78
2023-01-28T15:08:32.481Z,96938.88
2023-01-28T15:11:03.268Z,96939.28
2023-01-28T15:13:34.937Z,96947.84
2023-01-28T15:16:03.078Z,96952.88
2023-01-28T15:18:35.051Z,96951.56
2023-01-28T15:21:03.548Z,96954.47
2023-01-28T15:23:34.706Z,96946.94
2023-01-28T15:26:08.083Z,96954.38
2023-01-28T15:28:39.292Z,96954.94
2023-01-28T15:31:07.778Z,96965.84
2023-01-28T15:33:35.656Z,96955.44
2023-01-28T15:36:03.745Z,96962.03
2023-01-28T15:38:31.558Z,96960.41
2023-01-28T15:41:01.896Z,96965.13
2023-01-28T15:43:34.539Z,96970.25
2023-01-28T15:46:02.547Z,96976.03
2023-01-28T15:48:32.496Z,96971.88
2023-01-28T15:51:03.041Z,96978.94
2023-01-28T15:53:35.484Z,96989.25
2023-01-28T15:56:08.789Z,96986.47
2023-01-28T15:58:41.717Z,96989.59
2023-01-28T16:01:19.465Z,96989.34
2023-01-28T16:03:54.244Z,96992.38
2023-01-28T16:06:23.606Z,96999.56
2023-01-28T16:08:56.777Z,97000.34
2023-01-28T16:11:30.209Z,97002.81
2023-01-28T16:14:02.166Z,97004.88
2023-01-28T16:16:48.407Z,97002.00
2023-01-28T16:19:26.586Z,97002.47
2023-01-28T16:21:54.462Z,97001.75
2023-01-28T16:24:26.199Z,97004.19
2023-01-28T16:26:58.332Z,97016.72
2023-01-28T16:29:30.822Z,97005.81
2023-01-28T16:32:00.605Z,97021.19
2023-01-28T16:34:28.845Z,97017.72
2023-01-28T16:36:59.995Z,97021.09
2023-01-28T16:39:27.825Z,97022.59
2023-01-28T16:41:56.940Z,97027.22
2023-01-28T16:44:24.792Z,97020.06
2023-01-28T16:46:54.026Z,97024.44
2023-01-28T16:49:22.049Z,97028.41
2023-01-28T16:51:49.988Z,97025.75
2023-01-28T16:54:17.984Z,97026.53
2023-01-28T16:56:46.983Z,97021.47
2023-01-28T16:59:16.365Z,97043.56
2023-01-28T17:01:44.456Z,97029.44
2023-01-28T17:04:14.412Z,97033.59
2023-01-28T17:06:44.548Z,97044.47
2023-01-28T17:09:13.186Z,97039.75
2023-01-28T17:11:41.331Z,97045.88
2023-01-28T17:14:09.295Z,97032.31
2023-01-28T17:16:37.715Z,97036.47
2023-01-28T17:19:05.795Z,97046.91
2023-01-28T17:21:34.983Z,97033.59
2023-01-28T17:24:03.282Z,97037.06
2023-01-28T17:26:31.583Z,97051.75
2023-01-28T17:28:59.480Z,97045.41
2023-01-28T17:31:27.603Z,97047.00
2023-01-28T17:34:08.396Z,97052.34
2023-01-28T17:36:37.626Z,97048.41
2023-01-28T17:39:07.388Z,97051.88
2023-01-28T17:41:35.475Z,97059.41
2023-01-28T17:44:06.102Z,97061.03
2023-01-28T17:46:34.517Z,97058.94
2023-01-28T17:49:02.848Z,97055.22
2023-01-28T17:51:31.386Z,97056.88
2023-01-28T17:54:00.668Z,97057.44
2023-01-28T17:56:30.453Z,97058.59
2023-01-28T17:59:02.155Z,97063.13
2023-01-28T18:01:31.552Z,97067.28
2023-01-28T18:04:00.186Z,97070.28
2023-01-28T18:06:31.368Z,97061.72
2023-01-28T18:09:00.891Z,97072.34
2023-01-28T18:11:29.866Z,97068.53
2023-01-28T18:13:57.787Z,97069.47
2023-01-28T18:16:25.835Z,97066.22
2023-01-28T18:18:53.703Z,97071.78
2023-01-28T18:21:34.734Z,97070.97
2023-01-28T18:24:10.706Z,97070.38
2023-01-28T18:26:38.873Z,97069.56
2023-01-28T18:29:06.950Z,97072.84
2023-01-28T18:31:34.961Z,97071.78
2023-01-28T18:34:03.528Z,97078.16
2023-01-28T18:36:31.346Z,97066.47
2023-01-28T18:38:59.186Z,97065.66
2023-01-28T18:41:28.400Z,97074.44
2023-01-28T18:43:56.198Z,97084.06
2023-01-28T18:46:24.012Z,97081.38
2023-01-28T18:48:51.761Z,97086.47
2023-01-28T18:51:29.912Z,97080.94
2023-01-28T18:53:59.199Z,97075.03
2023-01-28T18:56:28.815Z,97071.78
2023-01-28T18:58:57.481Z,97081.38
2023-01-28T19:01:25.468Z,97085.66
2023-01-28T19:03:54.792Z,97081.38
2023-01-28T19:06:22.578Z,97078.16
2023-01-28T19:08:53.696Z,97071.69
2023-01-28T19:11:21.954Z,97071.69
2023-01-28T19:13:51.785Z,97067.50
2023-01-28T19:16:20.424Z,97072.59
2023-01-28T19:18:52.663Z,97069.94
2023-01-28T19:21:20.495Z,97065.88
2023-01-28T19:23:50.397Z,97067.50
2023-01-28T19:26:21.292Z,97064.63
2023-01-28T19:28:51.195Z,97065.41
2023-01-28T19:31:19.684Z,97063.81
2023-01-28T19:33:48.190Z,97067.84
2023-01-28T19:36:16.659Z,97079.31
2023-01-28T19:38:44.851Z,97075.63
2023-01-28T19:41:16.105Z,97079.66
2023-01-28T19:43:45.022Z,97080.13
2023-01-28T19:46:17.653Z,97078.84
2023-01-28T19:48:46.332Z,97087.88
2023-01-28T19:51:15.816Z,97082.31
2023-01-28T19:53:44.726Z,97083.59
2023-01-28T19:56:15.137Z,97088.44
2023-01-28T19:58:45.099Z,97084.66
2023-01-28T20:01:17.192Z,97081.03
2023-01-28T20:03:46.017Z,97087.41
2023-01-28T20:06:30.174Z,97084.84
2023-01-28T20:09:00.053Z,97084.06
2023-01-28T20:11:28.311Z,97084.28
2023-01-28T20:14:00.742Z,97084.50
2023-01-28T20:16:32.507Z,97094.56
2023-01-28T20:19:01.757Z,97093.88
2023-01-28T20:21:32.212Z,97086.34
2023-01-28T20:24:01.546Z,97091.69
2023-01-28T20:26:33.892Z,97090.06
2023-01-28T20:29:02.546Z,97091.13
2023-01-28T20:31:32.671Z,97088.91
2023-01-28T20:34:01.435Z,97096.31
2023-01-28T20:36:29.252Z,97102.91
2023-01-28T20:38:57.144Z,97105.22
2023-01-28T20:41:26.332Z,97094.22
2023-01-28T20:43:55.831Z,97097.13
2023-01-28T20:46:26.231Z,97092.97
2023-01-28T20:48:58.431Z,97098.38
2023-01-28T20:51:34.627Z,97097.56
2023-01-28T20:54:03.657Z,97107.75
2023-01-28T20:56:31.999Z,97105.56
2023-01-28T20:59:05.960Z,97098.94
2023-01-28T21:01:36.436Z,97102.78
2023-01-28T21:04:07.265Z,97108.41
2023-01-28T21:06:36.525Z,97110.63
2023-01-28T21:09:05.939Z,97116.19
2023-01-28T21:11:33.852Z,97120.94
2023-01-28T21:14:01.759Z,97120.59
2023-01-28T21:16:29.801Z,97126.72
2023-01-28T21:18:57.661Z,97121.19
2023-01-28T21:21:28.754Z,97126.16
2023-01-28T21:23:57.912Z,97123.16
2023-01-28T21:26:26.007Z,97135.88
2023-01-28T21:28:53.928Z,97135.19
2023-01-28T21:31:24.996Z,97130.59
2023-01-28T21:33:55.007Z,97129.75
2023-01-28T21:36:24.021Z,97130.78
2023-01-28T21:38:55.038Z,97136.13
2023-01-28T21:41:23.083Z,97136.00
2023-01-28T21:43:52.153Z,97142.50
2023-01-28T21:46:20.080Z,97139.81
2023-01-28T21:48:55.835Z,97144.91
2023-01-28T21:51:39.123Z,97148.16
2023-01-28T21:54:12.869Z,97141.31
2023-01-28T21:56:40.756Z,97132.88
2023-01-28T21:59:26.125Z,97129.75
2023-01-28T22:01:54.028Z,97140.16
2023-01-28T22:04:22.182Z,97136.31
2023-01-28T22:06:50.029Z,97142.13
2023-01-28T22:09:19.305Z,97136.91
2023-01-28T22:11:47.315Z,97142.59
2023-01-28T22:14:15.674Z,97139.47
2023-01-28T22:16:44.161Z,97139.34
2023-01-28T22:19:12.413Z,97138.66
2023-01-28T22:21:47.636Z,97134.22
2023-01-28T22:24:17.292Z,97136.56
2023-01-28T22:26:47.879Z,97139.22
2023-01-28T22:29:17.154Z,97143.97
2023-01-28T22:31:49.529Z,97136.31
2023-01-28T22:34:18.379Z,97135.88
2023-01-28T22:36:47.218Z,97135.38
2023-01-28T22:39:16.803Z,97137.00
2023-01-28T22:41:46.858Z,97128.94
2023-01-28T22:44:14.777Z,97131.47
2023-01-28T22:46:42.703Z,97136.19
2023-01-28T22:49:11.661Z,97130.44
2023-01-28T22:51:39.489Z,97136.91
2023-01-28T22:54:07.302Z,97131.34
2023-01-28T22:56:35.115Z,97135.19
2023-01-28T22:59:05.003Z,97130.19
2023-01-28T23:01:33.759Z,97142.25
2023-01-28T23:04:01.610Z,97138.41
2023-01-28T23:06:30.056Z,97137.13
2023-01-28T23:08:57.915Z,97137.56
2023-01-28T23:11:27.450Z,97140.22
2023-01-28T23:14:14.707Z,97130.84
2023-01-28T23:17:02.455Z,97140.91
2023-01-28T23:19:48.107Z,97138.03
2023-01-28T23:22:35.949Z,97134.91
2023-01-28T23:25:03.813Z,97138.38
2023-01-28T23:27:34.019Z,97142.66
2023-01-28T23:30:02.086Z,97138.84
2023-01-28T23:32:31.434Z,97136.84
2023-01-28T23:34:59.269Z,97140.69
2023-01-28T23:37:27.115Z,97138.16
2023-01-28T23:39:54.896Z,97131.31
2023-01-28T23:42:23.553Z,97132.78
2023-01-28T23:44:51.415Z,97127.53
2023-01-28T23:47:19.433Z,97144.28
2023-01-28T23:49:48.617Z,97135.50
2023-01-28T23:52:16.467Z,97128.88
2023-01-28T23:54:44.470Z,97129.31
2023-01-28T23:58:09.225Z,97135.25
